createdAt,value
2022-11-13T00:02:03.059Z,6.70
2022-11-13T00:04:44.947Z,6.70
2022-11-13T00:07:27.123Z,6.70
2022-11-13T00:10:09.939Z,6.70
2022-11-13T00:12:53.750Z,6.60
2022-11-13T00:15:35.854Z,6.50
2022-11-13T00:18:19.090Z,6.50
2022-11-13T00:21:07.253Z,6.50
2022-11-13T00:23:49.621Z,6.50
2022-11-13T00:26:32.534Z,6.50
2022-11-13T00:29:14.264Z,6.50
2022-11-13T00:31:56.387Z,6.40
2022-11-13T00:34:48.021Z,6.40
2022-11-13T00:37:30.305Z,6.30
2022-11-13T00:40:12.994Z,6.30
2022-11-13T00:42:54.911Z,6.30
2022-11-13T00:45:37.062Z,6.30
2022-11-13T00:48:19.398Z,6.20
2022-11-13T00:51:03.231Z,6.20
2022-11-13T00:53:45.267Z,6.20
2022-11-13T00:56:27.671Z,6.20
2022-11-13T00:59:09.895Z,6.20
2022-11-13T01:01:51.619Z,6.20
2022-11-13T01:04:33.472Z,6.10
2022-11-13T01:07:16.988Z,6.20
2022-11-13T01:09:59.760Z,6.10
2022-11-13T01:12:41.469Z,6.10
2022-11-13T01:15:23.406Z,6.10
2022-11-13T01:18:05.308Z,6.10
2022-11-13T01:20:47.098Z,6.20
2022-11-13T01:23:30.171Z,6.20
2022-11-13T01:26:15.788Z,6.20
2022-11-13T01:28:59.548Z,6.20
2022-11-13T01:31:41.505Z,6.20
2022-11-13T01:34:23.559Z,6.30
2022-11-13T01:37:05.581Z,6.20
2022-11-13T01:39:48.900Z,6.30
2022-11-13T01:42:33.512Z,6.30
2022-11-13T01:46:03.343Z,6.40
2022-11-13T01:48:51.208Z,6.30
2022-11-13T01:51:38.507Z,6.40
2022-11-13T01:54:25.580Z,6.30
2022-11-13T01:57:09.045Z,6.30
2022-11-13T01:59:54.555Z,6.30
2022-11-13T02:02:36.946Z,6.30
2022-11-13T02:05:18.699Z,6.30
2022-11-13T02:08:01.315Z,6.40
2022-11-13T02:10:43.263Z,6.40
2022-11-13T02:13:27.115Z,6.50
2022-11-13T02:16:10.688Z,6.50
2022-11-13T02:18:53.595Z,6.50
2022-11-13T02:21:45.030Z,6.60
2022-11-13T02:24:32.622Z,6.80
2022-11-13T02:27:22.531Z,6.90
2022-11-13T02:30:16.666Z,6.90
2022-11-13T02:33:00.942Z,7.00
2022-11-13T02:35:42.582Z,7.10
2022-11-13T02:38:25.007Z,7.20
2022-11-13T02:41:08.564Z,7.30
2022-11-13T02:43:50.573Z,7.30
2022-11-13T02:46:32.880Z,7.30
2022-11-13T02:49:14.721Z,7.30
2022-11-13T02:51:56.851Z,7.30
2022-11-13T02:54:38.818Z,7.30
2022-11-13T02:57:21.907Z,7.50
2022-11-13T03:00:07.881Z,7.50
2022-11-13T03:02:52.353Z,7.70
2022-11-13T03:05:34.177Z,7.70
2022-11-13T03:08:16.160Z,7.70
2022-11-13T03:10:58.122Z,7.80
2022-11-13T03:13:41.500Z,7.70
2022-11-13T03:16:23.814Z,7.80
2022-11-13T03:19:05.776Z,7.80
2022-11-13T03:21:47.357Z,7.70
2022-11-13T03:24:29.627Z,7.60
2022-11-13T03:27:11.404Z,7.60
2022-11-13T03:29:54.594Z,7.60
2022-11-13T03:32:36.302Z,7.60
2022-11-13T03:35:18.231Z,7.50
2022-11-13T03:37:59.798Z,7.50
2022-11-13T03:40:41.711Z,7.50
2022-11-13T03:43:24.787Z,7.40
2022-11-13T03:46:07.819Z,7.30
2022-11-13T03:48:49.729Z,7.40
2022-11-13T03:51:31.682Z,7.40
2022-11-13T03:54:13.647Z,7.40
2022-11-13T03:56:55.857Z,7.50
2022-11-13T03:59:37.632Z,7.50
2022-11-13T04:02:21.010Z,7.50
2022-11-13T04:05:03.039Z,7.40
2022-11-13T04:07:45.187Z,7.40
2022-11-13T04:10:27.265Z,7.40
2022-11-13T04:13:09.537Z,7.30
2022-11-13T04:15:51.247Z,7.30
2022-11-13T04:18:34.370Z,7.20
2022-11-13T04:21:16.582Z,7.10
2022-11-13T04:23:58.610Z,7.00
2022-11-13T04:26:40.239Z,6.80
2022-11-13T04:29:22.451Z,6.70
2022-11-13T04:32:04.095Z,6.60
2022-11-13T04:34:47.315Z,6.60
2022-11-13T04:37:29.046Z,6.50
2022-11-13T04:40:12.763Z,6.50
2022-11-13T04:42:53.720Z,6.40
2022-11-13T04:45:36.220Z,6.30
2022-11-13T04:48:17.835Z,6.30
2022-11-13T04:51:02.385Z,6.20
2022-11-13T04:53:44.286Z,6.10
2022-11-13T04:56:26.378Z,6.10
2022-11-13T04:59:08.211Z,6.00
2022-11-13T05:01:49.969Z,5.90
2022-11-13T05:04:32.047Z,5.90
2022-11-13T05:07:15.438Z,5.90
2022-11-13T05:09:57.186Z,5.80
2022-11-13T05:12:38.979Z,5.80
2022-11-13T05:15:20.725Z,5.70
2022-11-13T05:18:02.880Z,5.60
2022-11-13T05:20:44.654Z,5.70
2022-11-13T05:23:28.008Z,5.50
2022-11-13T05:26:12.627Z,5.50
2022-11-13T05:28:54.701Z,5.50
2022-11-13T05:31:36.843Z,5.50
2022-11-13T05:34:20.019Z,5.50
2022-11-13T05:37:01.812Z,5.40
2022-11-13T05:39:45.368Z,5.30
2022-11-13T05:42:27.309Z,5.30
2022-11-13T05:45:10.884Z,5.30
2022-11-13T05:47:52.596Z,5.20
2022-11-13T05:50:34.850Z,5.20
2022-11-13T05:53:16.540Z,5.20
2022-11-13T05:56:03.141Z,5.10
2022-11-13T05:58:45.956Z,5.10
2022-11-13T06:01:30.478Z,5.00
2022-11-13T06:04:12.583Z,5.00
2022-11-13T06:06:54.557Z,5.00
2022-11-13T06:09:36.723Z,4.90
2022-11-13T06:12:20.273Z,4.80
2022-11-13T06:15:02.264Z,4.80
2022-11-13T06:17:47.231Z,4.70
2022-11-13T06:20:28.927Z,4.70
2022-11-13T06:23:11.111Z,4.70
2022-11-13T06:25:52.674Z,4.70
2022-11-13T06:28:36.467Z,4.70
2022-11-13T06:31:21.081Z,4.50
2022-11-13T06:34:03.991Z,4.60
2022-11-13T06:36:45.912Z,4.60
2022-11-13T06:39:27.803Z,4.60
2022-11-13T06:42:09.836Z,4.60
2022-11-13T06:44:53.130Z,4.50
2022-11-13T06:47:35.165Z,4.50
2022-11-13T06:50:17.079Z,4.50
2022-11-13T06:52:58.823Z,4.40
2022-11-13T06:55:45.365Z,4.50
2022-11-13T06:58:27.441Z,4.40
2022-11-13T07:01:14.322Z,4.30
2022-11-13T07:03:56.024Z,4.40
2022-11-13T07:06:40.390Z,4.40
2022-11-13T07:09:22.570Z,4.40
2022-11-13T07:12:04.616Z,4.30
2022-11-13T07:14:46.416Z,4.40
2022-11-13T07:17:31.231Z,4.40
2022-11-13T07:20:13.447Z,4.40
2022-11-13T07:22:57.438Z,4.40
2022-11-13T07:25:39.624Z,4.50
2022-11-13T07:28:21.611Z,4.50
2022-11-13T07:31:03.499Z,4.50
2022-11-13T07:33:49.724Z,4.50
2022-11-13T07:36:31.781Z,4.50
2022-11-13T07:39:13.818Z,4.50
2022-11-13T07:41:55.848Z,4.50
2022-11-13T07:44:54.072Z,4.50
2022-11-13T07:47:36.497Z,4.50
2022-11-13T07:50:19.862Z,4.60
2022-11-13T07:53:05.706Z,4.70
2022-11-13T07:55:48.203Z,4.80
2022-11-13T07:58:31.173Z,4.90
2022-11-13T08:01:13.449Z,5.00
2022-11-13T08:03:55.262Z,5.00
2022-11-13T08:06:40.207Z,5.10
2022-11-13T08:09:22.598Z,5.10
2022-11-13T08:12:04.465Z,5.20
2022-11-13T08:14:46.491Z,5.30
2022-11-13T08:17:28.533Z,5.50
2022-11-13T08:20:12.101Z,5.70
2022-11-13T08:22:58.783Z,5.80
2022-11-13T08:25:40.559Z,6.00
2022-11-13T08:28:22.405Z,6.20
2022-11-13T08:31:05.159Z,6.20
2022-11-13T08:33:47.169Z,6.40
2022-11-13T08:36:29.276Z,6.50
2022-11-13T08:39:12.495Z,6.50
2022-11-13T08:41:54.391Z,6.80
2022-11-13T08:44:36.535Z,7.00
2022-11-13T08:47:18.407Z,7.20
2022-11-13T08:50:00.361Z,7.50
2022-11-13T08:52:42.279Z,7.50
2022-11-13T08:55:26.008Z,7.70
2022-11-13T08:58:07.817Z,7.90
2022-11-13T09:00:49.864Z,8.20
2022-11-13T09:03:31.957Z,8.30
2022-11-13T09:06:14.024Z,8.50
2022-11-13T09:08:56.431Z,8.60
2022-11-13T09:11:39.708Z,8.60
2022-11-13T09:14:21.541Z,8.80
2022-11-13T09:17:03.613Z,8.80
2022-11-13T09:19:45.664Z,9.00
2022-11-13T09:22:27.660Z,9.10
2022-11-13T09:25:10.731Z,9.30
2022-11-13T09:27:59.597Z,9.50
2022-11-13T09:30:42.042Z,9.70
2022-11-13T09:33:24.115Z,9.80
2022-11-13T09:36:12.759Z,10.00
2022-11-13T09:38:58.390Z,10.10
2022-11-13T09:41:45.362Z,10.10
2022-11-13T09:44:36.008Z,10.30
2022-11-13T09:47:23.036Z,10.50
2022-11-13T09:50:12.176Z,10.60
2022-11-13T09:52:55.793Z,10.70
2022-11-13T09:55:47.648Z,10.80
2022-11-13T09:58:42.156Z,10.90
2022-11-13T10:01:35.046Z,11.00
2022-11-13T10:04:26.049Z,11.30
2022-11-13T10:07:26.195Z,11.40
2022-11-13T10:10:54.812Z,11.50
2022-11-13T10:13:45.223Z,11.60
2022-11-13T10:16:34.807Z,11.70
2022-11-13T10:19:25.839Z,11.80
2022-11-13T10:22:34.173Z,11.70
2022-11-13T10:25:20.212Z,11.80
2022-11-13T10:28:28.019Z,11.90
2022-11-13T10:31:11.938Z,12.10
2022-11-13T10:33:56.571Z,12.10
2022-11-13T10:36:48.791Z,12.00
2022-11-13T10:39:30.634Z,12.20
2022-11-13T10:42:23.646Z,12.30
2022-11-13T10:45:12.056Z,12.30
2022-11-13T10:48:04.357Z,12.40
2022-11-13T10:50:55.688Z,13.00
2022-11-13T10:53:42.261Z,12.90
2022-11-13T10:56:35.117Z,13.10
2022-11-13T10:59:20.344Z,13.00
2022-11-13T11:02:18.695Z,13.20
2022-11-13T11:05:07.657Z,13.40
2022-11-13T11:07:51.978Z,13.30
2022-11-13T11:10:57.359Z,13.50
2022-11-13T11:13:39.207Z,13.50
2022-11-13T11:16:24.800Z,13.60
2022-11-13T11:19:11.799Z,13.70
2022-11-13T11:22:03.424Z,13.70
2022-11-13T11:24:56.581Z,13.60
2022-11-13T11:27:44.571Z,13.90
2022-11-13T11:30:28.029Z,14.00
2022-11-13T11:33:18.624Z,14.10
2022-11-13T11:36:08.358Z,14.10
2022-11-13T11:38:57.076Z,14.30
2022-11-13T11:41:47.653Z,14.30
2022-11-13T11:44:37.102Z,14.70
2022-11-13T11:47:19.741Z,14.60
2022-11-13T11:50:02.780Z,14.50
2022-11-13T11:53:00.268Z,14.70
2022-11-13T11:56:09.001Z,15.00
2022-11-13T11:59:12.634Z,14.70
2022-11-13T12:02:29.855Z,14.50
2022-11-13T12:05:24.511Z,14.90
2022-11-13T12:08:31.386Z,15.00
2022-11-13T12:11:23.662Z,15.10
2022-11-13T12:14:15.873Z,15.10
2022-11-13T12:17:27.880Z,14.90
2022-11-13T12:20:23.588Z,14.90
2022-11-13T12:23:25.416Z,15.30
2022-11-13T12:26:19.429Z,15.20
2022-11-13T12:29:14.833Z,15.40
2022-11-13T12:32:08.763Z,15.20
2022-11-13T12:34:55.340Z,15.10
2022-11-13T12:37:46.661Z,15.00
2022-11-13T12:40:37.494Z,15.10
2022-11-13T12:43:50.897Z,15.30
2022-11-13T12:46:42.033Z,15.20
2022-11-13T12:49:32.165Z,15.00
2022-11-13T12:52:24.382Z,15.10
2022-11-13T12:55:11.928Z,15.00
2022-11-13T12:57:54.191Z,15.10
2022-11-13T13:00:37.641Z,15.10
2022-11-13T13:03:48.028Z,15.00
2022-11-13T13:06:52.994Z,14.90
2022-11-13T13:09:51.018Z,14.80
2022-11-13T13:12:47.767Z,14.90
2022-11-13T13:15:36.318Z,15.00
2022-11-13T13:18:29.655Z,15.00
2022-11-13T13:21:16.266Z,15.00
2022-11-13T13:24:09.942Z,14.90
2022-11-13T13:26:51.896Z,14.80
2022-11-13T13:29:35.365Z,14.80
2022-11-13T13:32:24.309Z,14.70
2022-11-13T13:35:16.012Z,14.60
2022-11-13T13:38:07.748Z,14.70
2022-11-13T13:41:10.861Z,14.50
2022-11-13T13:44:11.723Z,14.40
2022-11-13T13:46:53.651Z,14.40
2022-11-13T13:49:35.563Z,14.40
2022-11-13T13:52:17.780Z,14.30
2022-11-13T13:55:02.955Z,14.10
2022-11-13T13:57:46.253Z,14.10
2022-11-13T14:00:28.518Z,14.10
2022-11-13T14:03:21.010Z,14.10
2022-11-13T14:06:27.431Z,14.10
2022-11-13T14:09:11.505Z,14.00
2022-11-13T14:12:09.664Z,14.00
2022-11-13T14:14:52.152Z,13.90
2022-11-13T14:17:35.472Z,13.90
2022-11-13T14:20:18.508Z,13.90
2022-11-13T14:23:00.264Z,14.00
2022-11-13T14:25:42.966Z,14.00
2022-11-13T14:28:28.680Z,14.00
2022-11-13T14:31:13.844Z,14.00
2022-11-13T14:33:55.984Z,13.90
2022-11-13T14:36:39.569Z,13.90
2022-11-13T14:39:27.460Z,14.00
2022-11-13T14:42:18.835Z,13.80
2022-11-13T14:45:16.742Z,13.80
2022-11-13T14:48:01.058Z,13.70
2022-11-13T14:50:52.131Z,13.60
2022-11-13T14:53:37.520Z,13.50
2022-11-13T14:56:19.144Z,13.70
2022-11-13T14:59:09.864Z,13.60
2022-11-13T15:01:57.834Z,13.60
2022-11-13T15:04:40.765Z,13.70
2022-11-13T15:07:30.334Z,13.70
2022-11-13T15:10:15.714Z,13.60
2022-11-13T15:12:58.025Z,13.50
2022-11-13T15:15:40.328Z,13.50
2022-11-13T15:18:23.928Z,13.30
2022-11-13T15:21:06.022Z,13.10
2022-11-13T15:23:48.044Z,12.90
2022-11-13T15:26:30.070Z,12.80
2022-11-13T15:29:12.197Z,12.70
2022-11-13T15:31:54.550Z,12.50
2022-11-13T15:34:37.776Z,12.40
2022-11-13T15:37:19.703Z,12.20
2022-11-13T15:40:01.363Z,12.20
2022-11-13T15:42:43.991Z,12.00
2022-11-13T15:45:26.148Z,11.90
2022-11-13T15:48:10.870Z,11.70
2022-11-13T15:50:54.347Z,11.60
2022-11-13T15:53:36.101Z,11.50
2022-11-13T15:56:18.761Z,11.50
2022-11-13T15:59:00.739Z,11.30
2022-11-13T16:01:43.085Z,11.30
2022-11-13T16:04:30.184Z,11.20
2022-11-13T16:07:20.561Z,11.00
2022-11-13T16:10:02.652Z,11.10
2022-11-13T16:12:45.825Z,11.00
2022-11-13T16:15:27.654Z,10.90
2022-11-13T16:18:22.937Z,10.90
2022-11-13T16:21:04.922Z,10.70
2022-11-13T16:23:48.150Z,10.50
2022-11-13T16:26:30.338Z,10.40
2022-11-13T16:29:20.239Z,10.40
2022-11-13T16:32:02.191Z,10.30
2022-11-13T16:34:44.260Z,10.20
2022-11-13T16:37:26.426Z,10.20
2022-11-13T16:40:20.609Z,10.40
2022-11-13T16:43:02.373Z,10.50
2022-11-13T16:45:44.315Z,10.60
2022-11-13T16:48:26.278Z,10.80
2022-11-13T16:51:07.895Z,11.00
2022-11-13T16:53:49.863Z,11.00
2022-11-13T16:56:33.239Z,11.00
2022-11-13T16:59:15.357Z,11.00
2022-11-13T17:01:57.985Z,11.10
2022-11-13T17:04:39.850Z,11.10
2022-11-13T17:07:23.055Z,11.00
2022-11-13T17:10:33.663Z,11.00
2022-11-13T17:13:10.409Z,11.00
2022-11-13T17:15:52.048Z,10.80
2022-11-13T17:18:34.074Z,10.50
2022-11-13T17:21:16.264Z,10.30
2022-11-13T17:23:59.646Z,10.30
2022-11-13T17:26:41.347Z,10.00
2022-11-13T17:29:25.090Z,10.00
2022-11-13T17:32:07.416Z,9.90
2022-11-13T17:34:49.340Z,9.70
2022-11-13T17:37:31.369Z,9.50
2022-11-13T17:40:13.730Z,9.40
2022-11-13T17:42:55.653Z,9.50
2022-11-13T17:45:40.671Z,9.20
2022-11-13T17:48:22.641Z,9.10
2022-11-13T17:51:06.795Z,9.00
2022-11-13T17:53:48.780Z,9.00
2022-11-13T17:56:30.873Z,8.80
2022-11-13T17:59:12.937Z,8.80
2022-11-13T18:01:56.182Z,8.80
2022-11-13T18:04:38.438Z,8.60
2022-11-13T18:07:20.597Z,8.50
2022-11-13T18:10:02.639Z,8.40
2022-11-13T18:12:44.832Z,8.40
2022-11-13T18:15:26.898Z,8.30
2022-11-13T18:18:10.813Z,8.30
2022-11-13T18:20:52.530Z,8.20
2022-11-13T18:23:34.387Z,8.10
2022-11-13T18:26:19.801Z,8.10
2022-11-13T18:29:02.540Z,8.00
2022-11-13T18:31:44.474Z,8.00
2022-11-13T18:34:28.875Z,7.90
2022-11-13T18:37:10.883Z,7.80
2022-11-13T18:39:52.852Z,7.70
2022-11-13T18:42:34.479Z,7.70
2022-11-13T18:45:16.690Z,7.50
2022-11-13T18:47:58.374Z,7.50
2022-11-13T18:50:41.617Z,7.50
2022-11-13T18:53:23.513Z,7.50
2022-11-13T18:56:08.255Z,7.50
2022-11-13T18:58:52.173Z,7.30
2022-11-13T19:01:36.301Z,7.20
2022-11-13T19:04:23.242Z,7.20
2022-11-13T19:07:07.726Z,7.20
2022-11-13T19:09:50.920Z,7.10
2022-11-13T19:12:32.860Z,7.00
2022-11-13T19:15:14.856Z,7.00
2022-11-13T19:17:56.694Z,7.00
2022-11-13T19:20:39.989Z,7.00
2022-11-13T19:23:23.204Z,6.90
2022-11-13T19:26:05.829Z,7.00
2022-11-13T19:28:48.822Z,6.90
2022-11-13T19:31:31.311Z,6.80
2022-11-13T19:34:14.516Z,6.70
2022-11-13T19:36:56.458Z,6.60
2022-11-13T19:39:39.445Z,6.70
2022-11-13T19:42:21.264Z,6.60
2022-11-13T19:45:03.234Z,6.50
2022-11-13T19:47:45.212Z,6.50
2022-11-13T19:50:26.979Z,6.50
2022-11-13T19:53:08.902Z,6.40
2022-11-13T19:55:57.159Z,6.40
2022-11-13T19:58:39.515Z,6.40
2022-11-13T20:01:25.060Z,6.30
2022-11-13T20:04:07.541Z,6.20
2022-11-13T20:06:50.723Z,6.20
2022-11-13T20:09:32.545Z,6.10
2022-11-13T20:12:15.720Z,6.20
2022-11-13T20:14:57.854Z,6.10
2022-11-13T20:17:39.760Z,6.10
2022-11-13T20:20:21.675Z,6.00
2022-11-13T20:23:03.762Z,6.00
2022-11-13T20:25:53.645Z,6.00
2022-11-13T20:28:36.963Z,5.90
2022-11-13T20:31:22.573Z,5.90
2022-11-13T20:34:04.217Z,5.90
2022-11-13T20:36:46.386Z,5.80
2022-11-13T20:39:28.345Z,5.80
2022-11-13T20:42:10.456Z,5.80
2022-11-13T20:44:57.208Z,5.70
2022-11-13T20:47:42.100Z,5.70
2022-11-13T20:50:23.820Z,5.70
2022-11-13T20:53:06.269Z,5.70
2022-11-13T20:55:47.936Z,5.60
2022-11-13T20:58:30.366Z,5.60
2022-11-13T21:01:16.175Z,5.50
2022-11-13T21:03:59.563Z,5.50
2022-11-13T21:06:41.690Z,5.50
2022-11-13T21:09:24.075Z,5.50
2022-11-13T21:12:06.586Z,5.50
2022-11-13T21:14:51.108Z,5.50
2022-11-13T21:17:34.320Z,5.50
2022-11-13T21:20:20.320Z,5.40
2022-11-13T21:23:02.045Z,5.40
2022-11-13T21:25:44.189Z,5.40
2022-11-13T21:28:30.597Z,5.40
2022-11-13T21:31:26.495Z,5.40
2022-11-13T21:34:11.706Z,5.40
2022-11-13T21:36:54.174Z,5.30
2022-11-13T21:39:36.047Z,5.30
2022-11-13T21:42:18.037Z,5.30
2022-11-13T21:45:00.211Z,5.30
2022-11-13T21:47:43.334Z,5.20
2022-11-13T21:50:26.755Z,5.20
2022-11-13T21:53:08.455Z,5.10
2022-11-13T21:55:51.422Z,5.20
2022-11-13T21:58:35.636Z,5.10
2022-11-13T22:01:17.684Z,5.10
2022-11-13T22:03:59.400Z,5.10
2022-11-13T22:06:49.478Z,5.00
2022-11-13T22:09:31.554Z,5.00
2022-11-13T22:12:13.397Z,5.00
2022-11-13T22:14:55.552Z,5.00
2022-11-13T22:17:37.281Z,5.00
2022-11-13T22:20:19.068Z,5.00
2022-11-13T22:23:02.620Z,4.90
2022-11-13T22:25:44.235Z,4.90
2022-11-13T22:28:26.316Z,4.80
2022-11-13T22:31:09.537Z,4.80
2022-11-13T22:33:54.807Z,4.70
2022-11-13T22:36:39.050Z,4.70
2022-11-13T22:39:22.490Z,4.70
2022-11-13T22:42:04.468Z,4.60
2022-11-13T22:44:56.124Z,4.60
2022-11-13T22:47:38.564Z,4.60
2022-11-13T22:50:20.652Z,4.50
2022-11-13T22:53:02.550Z,4.50
2022-11-13T22:55:45.826Z,4.50
2022-11-13T22:58:29.349Z,4.50
2022-11-13T23:01:16.554Z,4.50
2022-11-13T23:04:01.600Z,4.40
2022-11-13T23:06:44.064Z,4.40
2022-11-13T23:09:27.152Z,4.40
2022-11-13T23:12:10.499Z,4.30
2022-11-13T23:14:52.375Z,4.20
2022-11-13T23:17:34.076Z,4.30
2022-11-13T23:20:16.022Z,4.20
2022-11-13T23:22:57.742Z,4.20
2022-11-13T23:25:39.983Z,4.10
2022-11-13T23:28:23.201Z,4.20
2022-11-13T23:31:05.952Z,4.10
2022-11-13T23:33:47.878Z,4.10
2022-11-13T23:36:30.892Z,4.00
2022-11-13T23:39:12.729Z,4.00
2022-11-13T23:41:54.654Z,4.00
2022-11-13T23:44:38.216Z,4.00
2022-11-13T23:47:19.953Z,4.00
2022-11-13T23:50:01.881Z,4.00
2022-11-13T23:52:43.859Z,3.90
2022-11-13T23:55:26.229Z,3.90
2022-11-13T23:58:14.810Z,3.90
